sensor_id;sensor_type;location;lat;lon;timestamp;P1;P2;P0
80935;PMS7003;70392;51.144;17.050;2023-07-13T00:00:02;15;14;9
80935;PMS7003;70392;51.144;17.050;2023-07-13T00:02:45;13;13;8
80935;PMS7003;70392;51.144;17.050;2023-07-13T00:05:07;12;10;8
80935;PMS7003;70392;51.144;17.050;2023-07-13T00:07:23;11;11;9
80935;PMS7003;70392;51.144;17.050;2023-07-13T00:09:40;14;11;9
80935;PMS7003;70392;51.144;17.050;2023-07-13T00:12:00;13;13;9
80935;PMS7003;70392;51.144;17.050;2023-07-13T00:14:17;12;10;8
80935;PMS7003;70392;51.144;17.050;2023-07-13T00:16:35;11;10;9
80935;PMS7003;70392;51.144;17.050;2023-07-13T00:18:53;16;15;9
80935;PMS7003;70392;51.144;17.050;2023-07-13T00:21:09;10;10;8
80935;PMS7003;70392;51.144;17.050;2023-07-13T00:23:26;28;25;18
80935;PMS7003;70392;51.144;17.050;2023-07-13T00:25:42;249;233;129
80935;PMS7003;70392;51.144;17.050;2023-07-13T00:27:59;98;94;58
80935;PMS7003;70392;51.144;17.050;2023-07-13T00:30:15;36;31;22
80935;PMS7003;70392;51.144;17.050;2023-07-13T00:32:32;16;15;11
80935;PMS7003;70392;51.144;17.050;2023-07-13T00:35:09;14;14;9
80935;PMS7003;70392;51.144;17.050;2023-07-13T00:37:26;15;12;8
80935;PMS7003;70392;51.144;17.050;2023-07-13T00:39:45;17;15;11
80935;PMS7003;70392;51.144;17.050;2023-07-13T00:42:21;11;11;9
80935;PMS7003;70392;51.144;17.050;2023-07-13T00:44:37;13;13;10
80935;PMS7003;70392;51.144;17.050;2023-07-13T00:46:55;14;14;11
80935;PMS7003;70392;51.144;17.050;2023-07-13T00:49:16;17;17;10
80935;PMS7003;70392;51.144;17.050;2023-07-13T00:51:39;13;13;10
80935;PMS7003;70392;51.144;17.050;2023-07-13T00:54:21;14;14;10
80935;PMS7003;70392;51.144;17.050;2023-07-13T00:56:43;15;15;9
80935;PMS7003;70392;51.144;17.050;2023-07-13T00:59:07;15;15;9
80935;PMS7003;70392;51.144;17.050;2023-07-13T01:01:26;12;11;8
80935;PMS7003;70392;51.144;17.050;2023-07-13T01:03:44;15;15;9
80935;PMS7003;70392;51.144;17.050;2023-07-13T01:06:02;15;10;7
80935;PMS7003;70392;51.144;17.050;2023-07-13T01:08:20;15;13;10
80935;PMS7003;70392;51.144;17.050;2023-07-13T01:10:57;14;13;10
80935;PMS7003;70392;51.144;17.050;2023-07-13T01:13:17;12;10;8
80935;PMS7003;70392;51.144;17.050;2023-07-13T01:15:39;15;15;11
80935;PMS7003;70392;51.144;17.050;2023-07-13T01:18:00;16;16;10
80935;PMS7003;70392;51.144;17.050;2023-07-13T01:20:18;16;14;10
80935;PMS7003;70392;51.144;17.050;2023-07-13T01:22:34;361;312;128
80935;PMS7003;70392;51.144;17.050;2023-07-13T01:24:50;70;55;36
80935;PMS7003;70392;51.144;17.050;2023-07-13T01:27:09;66;55;34
80935;PMS7003;70392;51.144;17.050;2023-07-13T01:29:27;15;13;10
80935;PMS7003;70392;51.144;17.050;2023-07-13T01:31:44;15;14;9
80935;PMS7003;70392;51.144;17.050;2023-07-13T01:34:00;10;10;8
80935;PMS7003;70392;51.144;17.050;2023-07-13T01:36:16;12;12;9
80935;PMS7003;70392;51.144;17.050;2023-07-13T01:38:33;14;12;10
80935;PMS7003;70392;51.144;17.050;2023-07-13T01:40:51;20;10;5
80935;PMS7003;70392;51.144;17.050;2023-07-13T01:43:41;43;37;21
80935;PMS7003;70392;51.144;17.050;2023-07-13T01:45:58;214;196;106
80935;PMS7003;70392;51.144;17.050;2023-07-13T01:48:15;219;202;113
80935;PMS7003;70392;51.144;17.050;2023-07-13T01:50:33;131;122;73
80935;PMS7003;70392;51.144;17.050;2023-07-13T01:52:49;170;151;84
80935;PMS7003;70392;51.144;17.050;2023-07-13T01:55:08;107;99;59
80935;PMS7003;70392;51.144;17.050;2023-07-13T01:57:24;17;15;12
80935;PMS7003;70392;51.144;17.050;2023-07-13T01:59:41;22;19;12
80935;PMS7003;70392;51.144;17.050;2023-07-13T02:01:57;12;12;9
80935;PMS7003;70392;51.144;17.050;2023-07-13T02:04:15;13;12;11
80935;PMS7003;70392;51.144;17.050;2023-07-13T02:06:32;15;15;10
80935;PMS7003;70392;51.144;17.050;2023-07-13T02:08:48;12;11;10
80935;PMS7003;70392;51.144;17.050;2023-07-13T02:11:05;9;9;6
80935;PMS7003;70392;51.144;17.050;2023-07-13T02:13:23;14;14;9
80935;PMS7003;70392;51.144;17.050;2023-07-13T02:15:39;14;12;10
80935;PMS7003;70392;51.144;17.050;2023-07-13T02:17:59;16;15;10
80935;PMS7003;70392;51.144;17.050;2023-07-13T02:20:15;13;13;9
80935;PMS7003;70392;51.144;17.050;2023-07-13T02:22:31;14;14;11
80935;PMS7003;70392;51.144;17.050;2023-07-13T02:24:48;11;11;9
80935;PMS7003;70392;51.144;17.050;2023-07-13T02:27:05;14;12;11
80935;PMS7003;70392;51.144;17.050;2023-07-13T02:29:22;11;11;9
80935;PMS7003;70392;51.144;17.050;2023-07-13T02:31:38;13;13;10
80935;PMS7003;70392;51.144;17.050;2023-07-13T02:33:57;18;18;11
80935;PMS7003;70392;51.144;17.050;2023-07-13T02:36:20;12;11;7
80935;PMS7003;70392;51.144;17.050;2023-07-13T02:38:36;10;10;9
80935;PMS7003;70392;51.144;17.050;2023-07-13T02:40:52;14;13;10
80935;PMS7003;70392;51.144;17.050;2023-07-13T02:43:09;13;13;10
80935;PMS7003;70392;51.144;17.050;2023-07-13T02:45:25;13;13;7
80935;PMS7003;70392;51.144;17.050;2023-07-13T02:47:44;15;12;9
80935;PMS7003;70392;51.144;17.050;2023-07-13T02:50:02;19;14;11
80935;PMS7003;70392;51.144;17.050;2023-07-13T02:52:18;14;13;9
80935;PMS7003;70392;51.144;17.050;2023-07-13T02:54:35;17;17;11
80935;PMS7003;70392;51.144;17.050;2023-07-13T02:56:54;17;17;11
80935;PMS7003;70392;51.144;17.050;2023-07-13T02:59:11;17;17;12
80935;PMS7003;70392;51.144;17.050;2023-07-13T03:01:28;13;13;9
80935;PMS7003;70392;51.144;17.050;2023-07-13T03:03:56;14;14;11
80935;PMS7003;70392;51.144;17.050;2023-07-13T03:06:12;15;15;9
80935;PMS7003;70392;51.144;17.050;2023-07-13T03:08:29;21;17;11
80935;PMS7003;70392;51.144;17.050;2023-07-13T03:10:45;16;14;10
80935;PMS7003;70392;51.144;17.050;2023-07-13T03:13:05;23;18;11
80935;PMS7003;70392;51.144;17.050;2023-07-13T03:15:21;21;18;11
80935;PMS7003;70392;51.144;17.050;2023-07-13T03:17:45;17;17;10
80935;PMS7003;70392;51.144;17.050;2023-07-13T03:20:02;20;19;12
80935;PMS7003;70392;51.144;17.050;2023-07-13T03:22:24;17;16;10
80935;PMS7003;70392;51.144;17.050;2023-07-13T03:24:40;16;13;10
80935;PMS7003;70392;51.144;17.050;2023-07-13T03:26:56;18;18;11
80935;PMS7003;70392;51.144;17.050;2023-07-13T03:29:12;16;16;12
80935;PMS7003;70392;51.144;17.050;2023-07-13T03:31:30;17;16;12
80935;PMS7003;70392;51.144;17.050;2023-07-13T03:34:05;14;14;9
80935;PMS7003;70392;51.144;17.050;2023-07-13T03:36:24;20;18;9
80935;PMS7003;70392;51.144;17.050;2023-07-13T03:38:43;18;17;12
80935;PMS7003;70392;51.144;17.050;2023-07-13T03:41:07;18;16;9
80935;PMS7003;70392;51.144;17.050;2023-07-13T03:43:23;23;15;11
80935;PMS7003;70392;51.144;17.050;2023-07-13T03:45:41;21;20;14
80935;PMS7003;70392;51.144;17.050;2023-07-13T03:47:57;18;18;14
80935;PMS7003;70392;51.144;17.050;2023-07-13T03:50:13;22;19;13
80935;PMS7003;70392;51.144;17.050;2023-07-13T03:53:03;17;17;10
80935;PMS7003;70392;51.144;17.050;2023-07-13T03:55:20;16;16;11
80935;PMS7003;70392;51.144;17.050;2023-07-13T03:57:45;20;19;11
80935;PMS7003;70392;51.144;17.050;2023-07-13T04:00:01;18;14;12
80935;PMS7003;70392;51.144;17.050;2023-07-13T04:02:19;14;14;10
80935;PMS7003;70392;51.144;17.050;2023-07-13T04:04:35;17;17;12
80935;PMS7003;70392;51.144;17.050;2023-07-13T04:06:51;16;16;11
80935;PMS7003;70392;51.144;17.050;2023-07-13T04:09:11;17;17;12
80935;PMS7003;70392;51.144;17.050;2023-07-13T04:11:28;15;15;12
80935;PMS7003;70392;51.144;17.050;2023-07-13T04:13:47;21;19;13
80935;PMS7003;70392;51.144;17.050;2023-07-13T04:16:06;26;21;13
80935;PMS7003;70392;51.144;17.050;2023-07-13T04:18:23;18;18;11
80935;PMS7003;70392;51.144;17.050;2023-07-13T04:20:40;23;20;13
80935;PMS7003;70392;51.144;17.050;2023-07-13T04:22:55;21;19;13
80935;PMS7003;70392;51.144;17.050;2023-07-13T04:25:14;20;17;13
80935;PMS7003;70392;51.144;17.050;2023-07-13T04:27:30;16;16;11
80935;PMS7003;70392;51.144;17.050;2023-07-13T04:29:46;19;14;10
80935;PMS7003;70392;51.144;17.050;2023-07-13T04:32:24;14;13;9
80935;PMS7003;70392;51.144;17.050;2023-07-13T04:34:39;12;11;7
80935;PMS7003;70392;51.144;17.050;2023-07-13T04:36:56;14;14;7
80935;PMS7003;70392;51.144;17.050;2023-07-13T04:39:12;10;7;5
80935;PMS7003;70392;51.144;17.050;2023-07-13T04:41:28;9;9;7
80935;PMS7003;70392;51.144;17.050;2023-07-13T04:43:52;16;10;7
80935;PMS7003;70392;51.144;17.050;2023-07-13T04:46:09;11;11;9
80935;PMS7003;70392;51.144;17.050;2023-07-13T04:48:28;15;11;8
80935;PMS7003;70392;51.144;17.050;2023-07-13T04:50:45;13;13;10
80935;PMS7003;70392;51.144;17.050;2023-07-13T04:53:01;17;10;7
80935;PMS7003;70392;51.144;17.050;2023-07-13T04:55:21;11;9;8
80935;PMS7003;70392;51.144;17.050;2023-07-13T04:57:37;8;8;6
80935;PMS7003;70392;51.144;17.050;2023-07-13T04:59:53;8;8;6
80935;PMS7003;70392;51.144;17.050;2023-07-13T05:02:10;12;12;9
80935;PMS7003;70392;51.144;17.050;2023-07-13T05:04:26;13;12;9
80935;PMS7003;70392;51.144;17.050;2023-07-13T05:06:43;14;13;10
80935;PMS7003;70392;51.144;17.050;2023-07-13T05:08:58;12;12;9
80935;PMS7003;70392;51.144;17.050;2023-07-13T05:11:15;12;12;7
80935;PMS7003;70392;51.144;17.050;2023-07-13T05:13:31;11;11;8
80935;PMS7003;70392;51.144;17.050;2023-07-13T05:18:18;11;11;6
80935;PMS7003;70392;51.144;17.050;2023-07-13T05:20:34;12;12;8
80935;PMS7003;70392;51.144;17.050;2023-07-13T05:22:50;15;14;7
80935;PMS7003;70392;51.144;17.050;2023-07-13T05:25:06;23;14;10
80935;PMS7003;70392;51.144;17.050;2023-07-13T05:27:23;19;16;11
80935;PMS7003;70392;51.144;17.050;2023-07-13T05:29:43;15;15;8
80935;PMS7003;70392;51.144;17.050;2023-07-13T05:32:00;14;14;9
80935;PMS7003;70392;51.144;17.050;2023-07-13T05:34:25;22;19;11
80935;PMS7003;70392;51.144;17.050;2023-07-13T05:36:43;14;13;8
80935;PMS7003;70392;51.144;17.050;2023-07-13T05:38:59;11;11;7
80935;PMS7003;70392;51.144;17.050;2023-07-13T05:41:17;19;12;9
80935;PMS7003;70392;51.144;17.050;2023-07-13T05:43:33;15;15;9
80935;PMS7003;70392;51.144;17.050;2023-07-13T05:45:51;11;11;7
80935;PMS7003;70392;51.144;17.050;2023-07-13T05:48:12;9;8;6
80935;PMS7003;70392;51.144;17.050;2023-07-13T05:50:28;16;16;10
80935;PMS7003;70392;51.144;17.050;2023-07-13T05:52:44;16;13;9
80935;PMS7003;70392;51.144;17.050;2023-07-13T05:55:14;11;11;8
80935;PMS7003;70392;51.144;17.050;2023-07-13T05:57:31;14;11;8
80935;PMS7003;70392;51.144;17.050;2023-07-13T05:59:53;15;15;9
80935;PMS7003;70392;51.144;17.050;2023-07-13T06:02:09;15;12;9
80935;PMS7003;70392;51.144;17.050;2023-07-13T06:04:28;16;12;9
80935;PMS7003;70392;51.144;17.050;2023-07-13T06:06:44;17;17;8
80935;PMS7003;70392;51.144;17.050;2023-07-13T06:09:00;14;12;6
80935;PMS7003;70392;51.144;17.050;2023-07-13T06:11:20;10;10;6
80935;PMS7003;70392;51.144;17.050;2023-07-13T06:13:41;16;15;9
80935;PMS7003;70392;51.144;17.050;2023-07-13T06:15:57;14;14;8
80935;PMS7003;70392;51.144;17.050;2023-07-13T06:18:13;12;11;8
80935;PMS7003;70392;51.144;17.050;2023-07-13T06:20:33;13;10;7
80935;PMS7003;70392;51.144;17.050;2023-07-13T06:22:53;14;13;8
80935;PMS7003;70392;51.144;17.050;2023-07-13T06:25:08;10;10;7
80935;PMS7003;70392;51.144;17.050;2023-07-13T06:27:27;18;11;8
80935;PMS7003;70392;51.144;17.050;2023-07-13T06:29:43;14;13;8
80935;PMS7003;70392;51.144;17.050;2023-07-13T06:32:01;19;15;11
80935;PMS7003;70392;51.144;17.050;2023-07-13T06:34:17;11;11;9
80935;PMS7003;70392;51.144;17.050;2023-07-13T06:39:03;12;12;9
80935;PMS7003;70392;51.144;17.050;2023-07-13T06:41:21;13;13;9
80935;PMS7003;70392;51.144;17.050;2023-07-13T06:43:40;13;12;9
80935;PMS7003;70392;51.144;17.050;2023-07-13T06:45:57;14;13;7
80935;PMS7003;70392;51.144;17.050;2023-07-13T06:48:22;14;14;9
80935;PMS7003;70392;51.144;17.050;2023-07-13T06:50:40;15;14;12
80935;PMS7003;70392;51.144;17.050;2023-07-13T06:53:14;14;11;8
80935;PMS7003;70392;51.144;17.050;2023-07-13T06:55:31;14;13;9
80935;PMS7003;70392;51.144;17.050;2023-07-13T06:57:47;12;12;9
80935;PMS7003;70392;51.144;17.050;2023-07-13T07:00:04;15;15;9
80935;PMS7003;70392;51.144;17.050;2023-07-13T07:02:25;9;9;7
80935;PMS7003;70392;51.144;17.050;2023-07-13T07:04:47;10;10;8
80935;PMS7003;70392;51.144;17.050;2023-07-13T07:07:17;14;14;9
80935;PMS7003;70392;51.144;17.050;2023-07-13T07:09:34;12;12;9
80935;PMS7003;70392;51.144;17.050;2023-07-13T07:11:50;19;16;11
80935;PMS7003;70392;51.144;17.050;2023-07-13T07:14:11;12;12;8
80935;PMS7003;70392;51.144;17.050;2023-07-13T07:16:29;18;18;12
80935;PMS7003;70392;51.144;17.050;2023-07-13T07:18:46;13;10;8
80935;PMS7003;70392;51.144;17.050;2023-07-13T07:21:06;13;11;9
80935;PMS7003;70392;51.144;17.050;2023-07-13T07:23:22;18;16;10
80935;PMS7003;70392;51.144;17.050;2023-07-13T07:26:21;17;17;13
80935;PMS7003;70392;51.144;17.050;2023-07-13T07:28:37;19;15;9
80935;PMS7003;70392;51.144;17.050;2023-07-13T07:30:54;20;20;11
80935;PMS7003;70392;51.144;17.050;2023-07-13T07:33:12;17;17;12
80935;PMS7003;70392;51.144;17.050;2023-07-13T07:35:29;16;16;11
80935;PMS7003;70392;51.144;17.050;2023-07-13T07:37:47;20;19;12
80935;PMS7003;70392;51.144;17.050;2023-07-13T07:40:03;20;20;12
80935;PMS7003;70392;51.144;17.050;2023-07-13T07:42:21;19;19;12
80935;PMS7003;70392;51.144;17.050;2023-07-13T07:44:37;22;18;13
80935;PMS7003;70392;51.144;17.050;2023-07-13T07:47:04;29;21;13
80935;PMS7003;70392;51.144;17.050;2023-07-13T07:49:21;21;21;12
80935;PMS7003;70392;51.144;17.050;2023-07-13T07:51:45;23;22;14
80935;PMS7003;70392;51.144;17.050;2023-07-13T07:54:03;21;20;12
80935;PMS7003;70392;51.144;17.050;2023-07-13T07:56:21;23;23;15
80935;PMS7003;70392;51.144;17.050;2023-07-13T07:58:40;29;26;16
80935;PMS7003;70392;51.144;17.050;2023-07-13T08:03:22;23;23;13
80935;PMS7003;70392;51.144;17.050;2023-07-13T08:05:41;18;18;13
80935;PMS7003;70392;51.144;17.050;2023-07-13T08:07:59;22;20;13
80935;PMS7003;70392;51.144;17.050;2023-07-13T08:10:16;23;20;13
80935;PMS7003;70392;51.144;17.050;2023-07-13T08:12:36;23;18;12
80935;PMS7003;70392;51.144;17.050;2023-07-13T08:15:00;22;20;14
80935;PMS7003;70392;51.144;17.050;2023-07-13T08:17:17;23;14;10
80935;PMS7003;70392;51.144;17.050;2023-07-13T08:19:34;18;17;12
80935;PMS7003;70392;51.144;17.050;2023-07-13T08:21:53;18;18;11
80935;PMS7003;70392;51.144;17.050;2023-07-13T08:24:11;24;23;14
80935;PMS7003;70392;51.144;17.050;2023-07-13T08:26:29;21;16;11
80935;PMS7003;70392;51.144;17.050;2023-07-13T08:28:45;18;17;12
80935;PMS7003;70392;51.144;17.050;2023-07-13T08:31:03;24;22;12
80935;PMS7003;70392;51.144;17.050;2023-07-13T08:33:23;20;19;12
80935;PMS7003;70392;51.144;17.050;2023-07-13T08:35:47;22;18;10
80935;PMS7003;70392;51.144;17.050;2023-07-13T08:38:04;23;22;15
80935;PMS7003;70392;51.144;17.050;2023-07-13T08:40:23;27;27;17
80935;PMS7003;70392;51.144;17.050;2023-07-13T08:42:44;19;19;13
80935;PMS7003;70392;51.144;17.050;2023-07-13T08:45:28;23;20;13
80935;PMS7003;70392;51.144;17.050;2023-07-13T08:47:55;19;17;11
80935;PMS7003;70392;51.144;17.050;2023-07-13T08:50:20;14;14;10
80935;PMS7003;70392;51.144;17.050;2023-07-13T08:52:50;14;11;9
80935;PMS7003;70392;51.144;17.050;2023-07-13T08:55:12;14;13;8
80935;PMS7003;70392;51.144;17.050;2023-07-13T08:57:33;14;14;9
80935;PMS7003;70392;51.144;17.050;2023-07-13T08:59:54;26;26;16
80935;PMS7003;70392;51.144;17.050;2023-07-13T09:07:27;23;22;14
80935;PMS7003;70392;51.144;17.050;2023-07-13T09:10:10;13;13;9
80935;PMS7003;70392;51.144;17.050;2023-07-13T09:17:48;18;18;12
80935;PMS7003;70392;51.144;17.050;2023-07-13T09:22:47;17;17;11
80935;PMS7003;70392;51.144;17.050;2023-07-13T09:27:36;20;19;13
80935;PMS7003;70392;51.144;17.050;2023-07-13T09:32:38;15;14;10
80935;PMS7003;70392;51.144;17.050;2023-07-13T09:35:00;18;14;11
80935;PMS7003;70392;51.144;17.050;2023-07-13T09:37:28;15;15;9
80935;PMS7003;70392;51.144;17.050;2023-07-13T09:39:50;15;15;11
80935;PMS7003;70392;51.144;17.050;2023-07-13T09:44:52;14;14;9
80935;PMS7003;70392;51.144;17.050;2023-07-13T09:49:40;13;11;8
80935;PMS7003;70392;51.144;17.050;2023-07-13T09:52:10;10;10;8
80935;PMS7003;70392;51.144;17.050;2023-07-13T09:54:29;20;14;9
80935;PMS7003;70392;51.144;17.050;2023-07-13T09:56:53;11;10;8
80935;PMS7003;70392;51.144;17.050;2023-07-13T09:59:29;13;13;10
80935;PMS7003;70392;51.144;17.050;2023-07-13T10:01:57;15;15;11
80935;PMS7003;70392;51.144;17.050;2023-07-13T10:04:16;19;14;10
80935;PMS7003;70392;51.144;17.050;2023-07-13T10:06:35;11;11;8
80935;PMS7003;70392;51.144;17.050;2023-07-13T10:08:56;11;11;9
80935;PMS7003;70392;51.144;17.050;2023-07-13T10:16:04;13;13;9
80935;PMS7003;70392;51.144;17.050;2023-07-13T10:18:23;10;10;6
80935;PMS7003;70392;51.144;17.050;2023-07-13T10:20:41;11;10;7
80935;PMS7003;70392;51.144;17.050;2023-07-13T10:25:24;5;5;4
80935;PMS7003;70392;51.144;17.050;2023-07-13T10:27:46;8;7;6
80935;PMS7003;70392;51.144;17.050;2023-07-13T10:32:35;9;9;6
80935;PMS7003;70392;51.144;17.050;2023-07-13T10:34:57;10;10;7
80935;PMS7003;70392;51.144;17.050;2023-07-13T10:39:42;9;9;5
80935;PMS7003;70392;51.144;17.050;2023-07-13T10:42:03;8;8;6
80935;PMS7003;70392;51.144;17.050;2023-07-13T10:44:28;8;8;6
80935;PMS7003;70392;51.144;17.050;2023-07-13T10:46:45;8;7;5
80935;PMS7003;70392;51.144;17.050;2023-07-13T10:49:05;12;8;6
80935;PMS7003;70392;51.144;17.050;2023-07-13T10:51:28;6;6;5
80935;PMS7003;70392;51.144;17.050;2023-07-13T10:53:46;7;7;6
80935;PMS7003;70392;51.144;17.050;2023-07-13T10:56:04;7;7;4
80935;PMS7003;70392;51.144;17.050;2023-07-13T10:58:36;5;5;5
80935;PMS7003;70392;51.144;17.050;2023-07-13T11:03:22;6;6;5
80935;PMS7003;70392;51.144;17.050;2023-07-13T11:05:48;6;6;3
80935;PMS7003;70392;51.144;17.050;2023-07-13T11:13:27;6;6;4
80935;PMS7003;70392;51.144;17.050;2023-07-13T11:15:48;7;7;5
80935;PMS7003;70392;51.144;17.050;2023-07-13T11:18:12;10;8;6
80935;PMS7003;70392;51.144;17.050;2023-07-13T11:20:39;8;8;6
80935;PMS7003;70392;51.144;17.050;2023-07-13T11:25:43;8;8;6
80935;PMS7003;70392;51.144;17.050;2023-07-13T11:30:46;9;9;8
80935;PMS7003;70392;51.144;17.050;2023-07-13T11:33:58;12;12;7
80935;PMS7003;70392;51.144;17.050;2023-07-13T11:36:22;9;9;7
80935;PMS7003;70392;51.144;17.050;2023-07-13T11:39:00;8;8;8
80935;PMS7003;70392;51.144;17.050;2023-07-13T11:41:49;11;11;7
80935;PMS7003;70392;51.144;17.050;2023-07-13T11:44:13;12;9;8
80935;PMS7003;70392;51.144;17.050;2023-07-13T11:46:31;8;8;6
80935;PMS7003;70392;51.144;17.050;2023-07-13T11:48:59;8;8;7
80935;PMS7003;70392;51.144;17.050;2023-07-13T11:51:17;8;8;6
80935;PMS7003;70392;51.144;17.050;2023-07-13T11:53:43;9;9;6
80935;PMS7003;70392;51.144;17.050;2023-07-13T11:56:03;8;8;6
80935;PMS7003;70392;51.144;17.050;2023-07-13T11:58:23;8;8;6
80935;PMS7003;70392;51.144;17.050;2023-07-13T12:00:40;7;7;5
80935;PMS7003;70392;51.144;17.050;2023-07-13T12:02:59;6;6;5
80935;PMS7003;70392;51.144;17.050;2023-07-13T12:05:18;9;9;7
80935;PMS7003;70392;51.144;17.050;2023-07-13T12:07:36;8;8;6
80935;PMS7003;70392;51.144;17.050;2023-07-13T12:09:59;7;7;5
80935;PMS7003;70392;51.144;17.050;2023-07-13T12:12:30;8;8;6
80935;PMS7003;70392;51.144;17.050;2023-07-13T12:14:52;8;8;5
80935;PMS7003;70392;51.144;17.050;2023-07-13T12:17:20;8;8;6
80935;PMS7003;70392;51.144;17.050;2023-07-13T12:19:40;4;4;4
80935;PMS7003;70392;51.144;17.050;2023-07-13T12:21:57;8;8;6
80935;PMS7003;70392;51.144;17.050;2023-07-13T12:24:35;5;5;4
80935;PMS7003;70392;51.144;17.050;2023-07-13T12:29:17;16;10;5
80935;PMS7003;70392;51.144;17.050;2023-07-13T12:31:35;8;8;6
80935;PMS7003;70392;51.144;17.050;2023-07-13T12:34:30;7;7;5
80935;PMS7003;70392;51.144;17.050;2023-07-13T12:39:34;6;6;3
80935;PMS7003;70392;51.144;17.050;2023-07-13T12:44:33;6;6;4
80935;PMS7003;70392;51.144;17.050;2023-07-13T12:47:02;7;5;4
80935;PMS7003;70392;51.144;17.050;2023-07-13T12:49:27;7;7;3
80935;PMS7003;70392;51.144;17.050;2023-07-13T12:51:55;7;7;6
80935;PMS7003;70392;51.144;17.050;2023-07-13T12:54:20;5;5;4
80935;PMS7003;70392;51.144;17.050;2023-07-13T12:56:37;3;3;2
80935;PMS7003;70392;51.144;17.050;2023-07-13T12:58:56;6;6;5
80935;PMS7003;70392;51.144;17.050;2023-07-13T13:01:17;6;6;5
80935;PMS7003;70392;51.144;17.050;2023-07-13T13:04:08;10;8;5
80935;PMS7003;70392;51.144;17.050;2023-07-13T13:06:29;6;6;5
80935;PMS7003;70392;51.144;17.050;2023-07-13T13:08:49;5;5;3
80935;PMS7003;70392;51.144;17.050;2023-07-13T13:11:09;4;4;3
80935;PMS7003;70392;51.144;17.050;2023-07-13T13:13:26;7;7;4
80935;PMS7003;70392;51.144;17.050;2023-07-13T13:15:44;8;5;5
80935;PMS7003;70392;51.144;17.050;2023-07-13T13:18:00;8;7;5
80935;PMS7003;70392;51.144;17.050;2023-07-13T13:20:19;7;7;6
80935;PMS7003;70392;51.144;17.050;2023-07-13T13:22:42;5;5;4
80935;PMS7003;70392;51.144;17.050;2023-07-13T13:24:58;5;5;5
80935;PMS7003;70392;51.144;17.050;2023-07-13T13:29:38;4;4;3
80935;PMS7003;70392;51.144;17.050;2023-07-13T13:31:55;7;7;6
80935;PMS7003;70392;51.144;17.050;2023-07-13T13:34:19;11;7;5
80935;PMS7003;70392;51.144;17.050;2023-07-13T13:36:39;5;5;4
80935;PMS7003;70392;51.144;17.050;2023-07-13T13:38:58;9;9;7
80935;PMS7003;70392;51.144;17.050;2023-07-13T13:41:16;6;6;5
80935;PMS7003;70392;51.144;17.050;2023-07-13T13:43:35;6;6;4
80935;PMS7003;70392;51.144;17.050;2023-07-13T13:45:56;4;4;3
80935;PMS7003;70392;51.144;17.050;2023-07-13T13:48:17;4;4;3
80935;PMS7003;70392;51.144;17.050;2023-07-13T13:50:48;6;6;4
80935;PMS7003;70392;51.144;17.050;2023-07-13T13:53:15;7;7;5
80935;PMS7003;70392;51.144;17.050;2023-07-13T13:55:31;4;4;3
80935;PMS7003;70392;51.144;17.050;2023-07-13T13:57:47;4;4;2
80935;PMS7003;70392;51.144;17.050;2023-07-13T14:00:04;4;4;3
80935;PMS7003;70392;51.144;17.050;2023-07-13T14:02:24;5;5;4
80935;PMS7003;70392;51.144;17.050;2023-07-13T14:04:45;5;5;5
80935;PMS7003;70392;51.144;17.050;2023-07-13T14:07:04;8;5;4
80935;PMS7003;70392;51.144;17.050;2023-07-13T14:09:20;2;2;2
80935;PMS7003;70392;51.144;17.050;2023-07-13T14:11:37;4;4;4
80935;PMS7003;70392;51.144;17.050;2023-07-13T14:13:56;3;3;3
80935;PMS7003;70392;51.144;17.050;2023-07-13T14:16:18;3;3;3
80935;PMS7003;70392;51.144;17.050;2023-07-13T14:18:36;4;3;2
80935;PMS7003;70392;51.144;17.050;2023-07-13T14:20:52;5;5;3
80935;PMS7003;70392;51.144;17.050;2023-07-13T14:23:10;5;4;4
80935;PMS7003;70392;51.144;17.050;2023-07-13T14:25:29;6;6;3
80935;PMS7003;70392;51.144;17.050;2023-07-13T14:27:46;6;6;3
80935;PMS7003;70392;51.144;17.050;2023-07-13T14:32:30;4;4;4
80935;PMS7003;70392;51.144;17.050;2023-07-13T14:34:55;2;2;2
80935;PMS7003;70392;51.144;17.050;2023-07-13T14:37:14;3;3;2
80935;PMS7003;70392;51.144;17.050;2023-07-13T14:39:31;4;4;4
80935;PMS7003;70392;51.144;17.050;2023-07-13T14:41:49;6;6;5
80935;PMS7003;70392;51.144;17.050;2023-07-13T14:44:10;3;3;3
80935;PMS7003;70392;51.144;17.050;2023-07-13T14:46:32;5;5;4
80935;PMS7003;70392;51.144;17.050;2023-07-13T14:48:59;6;3;3
80935;PMS7003;70392;51.144;17.050;2023-07-13T14:51:22;5;5;4
80935;PMS7003;70392;51.144;17.050;2023-07-13T14:53:40;3;3;3
80935;PMS7003;70392;51.144;17.050;2023-07-13T14:55:56;4;4;3
80935;PMS7003;70392;51.144;17.050;2023-07-13T14:58:12;5;5;3
80935;PMS7003;70392;51.144;17.050;2023-07-13T15:00:29;3;3;3
80935;PMS7003;70392;51.144;17.050;2023-07-13T15:02:48;4;4;3
80935;PMS7003;70392;51.144;17.050;2023-07-13T15:05:29;6;6;4
80935;PMS7003;70392;51.144;17.050;2023-07-13T15:07:46;5;3;2
80935;PMS7003;70392;51.144;17.050;2023-07-13T15:12:31;6;4;4
80935;PMS7003;70392;51.144;17.050;2023-07-13T15:14:47;4;4;4
80935;PMS7003;70392;51.144;17.050;2023-07-13T15:17:03;6;6;3
80935;PMS7003;70392;51.144;17.050;2023-07-13T15:19:30;5;5;4
80935;PMS7003;70392;51.144;17.050;2023-07-13T15:21:47;4;4;3
80935;PMS7003;70392;51.144;17.050;2023-07-13T15:24:05;4;4;4
80935;PMS7003;70392;51.144;17.050;2023-07-13T15:26:25;3;3;3
80935;PMS7003;70392;51.144;17.050;2023-07-13T15:28:42;4;4;3
80935;PMS7003;70392;51.144;17.050;2023-07-13T15:31:08;4;4;3
80935;PMS7003;70392;51.144;17.050;2023-07-13T15:33:35;5;5;4
80935;PMS7003;70392;51.144;17.050;2023-07-13T15:35:55;5;5;4
80935;PMS7003;70392;51.144;17.050;2023-07-13T15:38:20;6;5;4
80935;PMS7003;70392;51.144;17.050;2023-07-13T15:40:43;7;7;6
80935;PMS7003;70392;51.144;17.050;2023-07-13T15:43:00;7;7;5
80935;PMS7003;70392;51.144;17.050;2023-07-13T15:45:22;8;8;6
80935;PMS7003;70392;51.144;17.050;2023-07-13T15:47:40;7;7;7
80935;PMS7003;70392;51.144;17.050;2023-07-13T15:49:59;7;7;6
80935;PMS7003;70392;51.144;17.050;2023-07-13T15:52:18;5;5;4
80935;PMS7003;70392;51.144;17.050;2023-07-13T15:54:43;10;8;6
80935;PMS7003;70392;51.144;17.050;2023-07-13T15:57:00;8;8;7
80935;PMS7003;70392;51.144;17.050;2023-07-13T15:59:19;7;7;6
80935;PMS7003;70392;51.144;17.050;2023-07-13T16:01:35;6;6;4
80935;PMS7003;70392;51.144;17.050;2023-07-13T16:03:56;7;7;7
80935;PMS7003;70392;51.144;17.050;2023-07-13T16:06:33;7;7;6
80935;PMS7003;70392;51.144;17.050;2023-07-13T16:09:03;6;6;6
80935;PMS7003;70392;51.144;17.050;2023-07-13T16:11:23;8;7;6
80935;PMS7003;70392;51.144;17.050;2023-07-13T16:13:43;7;7;5
80935;PMS7003;70392;51.144;17.050;2023-07-13T16:16:01;7;7;5
80935;PMS7003;70392;51.144;17.050;2023-07-13T16:18:24;5;5;5